sensor_id;sensor_type;location;lat;lon;timestamp;P1;durP1;ratioP1;P2;durP2;ratioP2
63296;SDS011;49419;51.716;-4.948;2023-06-14T00:02:55;5.07;;;4.78;;
63296;SDS011;49419;51.716;-4.948;2023-06-14T00:05:31;5.05;;;4.75;;
63296;SDS011;49419;51.716;-4.948;2023-06-14T00:08:09;4.32;;;4.13;;
63296;SDS011;49419;51.716;-4.948;2023-06-14T00:10:47;4.20;;;3.90;;
63296;SDS011;49419;51.716;-4.948;2023-06-14T00:13:13;4.55;;;4.25;;
63296;SDS011;49419;51.716;-4.948;2023-06-14T00:18:13;4.20;;;3.90;;
63296;SDS011;49419;51.716;-4.948;2023-06-14T00:20:42;3.78;;;3.58;;
63296;SDS011;49419;51.716;-4.948;2023-06-14T00:23:09;4.65;;;4.35;;
63296;SDS011;49419;51.716;-4.948;2023-06-14T00:25:46;4.60;;;4.30;;
63296;SDS011;49419;51.716;-4.948;2023-06-14T00:31:29;4.03;;;3.72;;
63296;SDS011;49419;51.716;-4.948;2023-06-14T00:34:19;3.60;;;3.40;;
63296;SDS011;49419;51.716;-4.948;2023-06-14T00:36:48;3.65;;;3.45;;
63296;SDS011;49419;51.716;-4.948;2023-06-14T00:41:47;4.53;;;4.22;;
63296;SDS011;49419;51.716;-4.948;2023-06-14T00:44:24;4.53;;;4.22;;
63296;SDS011;49419;51.716;-4.948;2023-06-14T00:46:59;4.45;;;4.20;;
63296;SDS011;49419;51.716;-4.948;2023-06-14T00:49:39;4.82;;;4.53;;
63296;SDS011;49419;51.716;-4.948;2023-06-14T00:52:12;4.32;;;4.13;;
63296;SDS011;49419;51.716;-4.948;2023-06-14T00:54:44;5.20;;;4.90;;
63296;SDS011;49419;51.716;-4.948;2023-06-14T00:57:30;5.70;;;5.30;;
63296;SDS011;49419;51.716;-4.948;2023-06-14T02:08:11;5.97;;;5.57;;
63296;SDS011;49419;51.716;-4.948;2023-06-14T02:14:10;6.05;;;5.55;;
63296;SDS011;49419;51.716;-4.948;2023-06-14T02:37:12;5.93;;;5.50;;
63296;SDS011;49419;51.716;-4.948;2023-06-14T02:39:46;5.45;;;5.15;;
63296;SDS011;49419;51.716;-4.948;2023-06-14T02:44:48;5.72;;;5.32;;
63296;SDS011;49419;51.716;-4.948;2023-06-14T02:47:29;5.60;;;5.20;;
63296;SDS011;49419;51.716;-4.948;2023-06-14T02:50:33;5.55;;;5.20;;
63296;SDS011;49419;51.716;-4.948;2023-06-14T02:53:21;5.50;;;5.10;;
63296;SDS011;49419;51.716;-4.948;2023-06-14T02:56:07;5.30;;;4.90;;
63296;SDS011;49419;51.716;-4.948;2023-06-14T02:58:59;5.38;;;4.97;;
63296;SDS011;49419;51.716;-4.948;2023-06-14T03:02:01;5.53;;;5.13;;
63296;SDS011;49419;51.716;-4.948;2023-06-14T03:04:28;5.78;;;5.28;;
63296;SDS011;49419;51.716;-4.948;2023-06-14T03:07:35;5.40;;;5.03;;
63296;SDS011;49419;51.716;-4.948;2023-06-14T03:10:27;5.40;;;5.10;;
63296;SDS011;49419;51.716;-4.948;2023-06-14T03:13:19;5.10;;;4.80;;
63296;SDS011;49419;51.716;-4.948;2023-06-14T03:21:32;5.13;;;4.82;;
63296;SDS011;49419;51.716;-4.948;2023-06-14T03:27:03;5.30;;;5.00;;
63296;SDS011;49419;51.716;-4.948;2023-06-14T03:29:34;4.95;;;4.65;;
63296;SDS011;49419;51.716;-4.948;2023-06-14T03:32:15;5.32;;;5.03;;
63296;SDS011;49419;51.716;-4.948;2023-06-14T03:34:42;5.20;;;4.90;;
63296;SDS011;49419;51.716;-4.948;2023-06-14T03:37:35;5.15;;;4.85;;
63296;SDS011;49419;51.716;-4.948;2023-06-14T03:40:08;4.85;;;4.55;;
63296;SDS011;49419;51.716;-4.948;2023-06-14T03:43:21;5.05;;;4.75;;
63296;SDS011;49419;51.716;-4.948;2023-06-14T03:48:53;4.93;;;4.63;;
63296;SDS011;49419;51.716;-4.948;2023-06-14T03:54:23;4.50;;;4.30;;
63296;SDS011;49419;51.716;-4.948;2023-06-14T03:57:05;4.75;;;4.45;;
63296;SDS011;49419;51.716;-4.948;2023-06-14T04:03:36;5.03;;;4.72;;
63296;SDS011;49419;51.716;-4.948;2023-06-14T04:06:07;4.80;;;4.50;;
63296;SDS011;49419;51.716;-4.948;2023-06-14T04:09:01;4.80;;;4.50;;
63296;SDS011;49419;51.716;-4.948;2023-06-14T04:11:28;4.40;;;4.20;;
63296;SDS011;49419;51.716;-4.948;2023-06-14T04:16:30;4.50;;;4.20;;
63296;SDS011;49419;51.716;-4.948;2023-06-14T04:19:21;4.80;;;4.50;;
63296;SDS011;49419;51.716;-4.948;2023-06-14T04:21:57;4.60;;;4.30;;
63296;SDS011;49419;51.716;-4.948;2023-06-14T04:24:31;4.70;;;4.40;;
63296;SDS011;49419;51.716;-4.948;2023-06-14T04:29:55;4.80;;;4.50;;
63296;SDS011;49419;51.716;-4.948;2023-06-14T04:32:25;4.30;;;4.10;;
63296;SDS011;49419;51.716;-4.948;2023-06-14T04:35:06;4.70;;;4.35;;
63296;SDS011;49419;51.716;-4.948;2023-06-14T04:37:36;4.85;;;4.55;;
63296;SDS011;49419;51.716;-4.948;2023-06-14T04:40:13;4.70;;;4.40;;
63296;SDS011;49419;51.716;-4.948;2023-06-14T04:45:36;4.45;;;4.15;;
63296;SDS011;49419;51.716;-4.948;2023-06-14T04:48:03;4.60;;;4.30;;
63296;SDS011;49419;51.716;-4.948;2023-06-14T04:50:29;4.40;;;4.10;;
63296;SDS011;49419;51.716;-4.948;2023-06-14T04:53:08;4.47;;;4.18;;
63296;SDS011;49419;51.716;-4.948;2023-06-14T04:58:51;4.32;;;4.13;;
63296;SDS011;49419;51.716;-4.948;2023-06-14T05:01:39;4.60;;;4.22;;
63296;SDS011;49419;51.716;-4.948;2023-06-14T05:04:18;4.10;;;3.90;;
63296;SDS011;49419;51.716;-4.948;2023-06-14T05:07:17;4.00;;;3.80;;
63296;SDS011;49419;51.716;-4.948;2023-06-14T05:10:09;4.50;;;4.20;;
63296;SDS011;49419;51.716;-4.948;2023-06-14T05:13:16;4.07;;;3.88;;
63296;SDS011;49419;51.716;-4.948;2023-06-14T05:16:24;4.50;;;4.20;;
63296;SDS011;49419;51.716;-4.948;2023-06-14T05:18:58;4.10;;;3.90;;
63296;SDS011;49419;51.716;-4.948;2023-06-14T05:22:11;4.40;;;4.05;;
63296;SDS011;49419;51.716;-4.948;2023-06-14T05:24:46;4.03;;;3.83;;
63296;SDS011;49419;51.716;-4.948;2023-06-14T05:27:14;4.45;;;4.15;;
63296;SDS011;49419;51.716;-4.948;2023-06-14T05:29:47;4.63;;;4.33;;
63296;SDS011;49419;51.716;-4.948;2023-06-14T05:32:21;4.68;;;4.38;;
63296;SDS011;49419;51.716;-4.948;2023-06-14T05:34:55;4.35;;;4.07;;
63296;SDS011;49419;51.716;-4.948;2023-06-14T05:37:26;4.35;;;4.05;;
63296;SDS011;49419;51.716;-4.948;2023-06-14T05:39:52;4.72;;;4.43;;
63296;SDS011;49419;51.716;-4.948;2023-06-14T05:45:12;4.25;;;3.95;;
63296;SDS011;49419;51.716;-4.948;2023-06-14T05:48:08;4.15;;;3.95;;
63296;SDS011;49419;51.716;-4.948;2023-06-14T05:50:59;4.30;;;4.00;;
63296;SDS011;49419;51.716;-4.948;2023-06-14T05:53:39;4.43;;;4.18;;
63296;SDS011;49419;51.716;-4.948;2023-06-14T05:56:13;4.45;;;4.15;;
63296;SDS011;49419;51.716;-4.948;2023-06-14T05:58:40;4.10;;;3.90;;
63296;SDS011;49419;51.716;-4.948;2023-06-14T06:01:15;4.20;;;3.90;;
63296;SDS011;49419;51.716;-4.948;2023-06-14T06:03:46;4.25;;;3.95;;
63296;SDS011;49419;51.716;-4.948;2023-06-14T06:06:12;4.20;;;3.90;;
63296;SDS011;49419;51.716;-4.948;2023-06-14T06:08:44;4.18;;;3.92;;
63296;SDS011;49419;51.716;-4.948;2023-06-14T06:11:15;4.07;;;3.88;;
63296;SDS011;49419;51.716;-4.948;2023-06-14T06:13:43;3.97;;;3.78;;
63296;SDS011;49419;51.716;-4.948;2023-06-14T06:16:12;4.22;;;3.92;;
63296;SDS011;49419;51.716;-4.948;2023-06-14T06:18:45;4.25;;;3.95;;
63296;SDS011;49419;51.716;-4.948;2023-06-14T06:21:15;4.25;;;3.95;;
63296;SDS011;49419;51.716;-4.948;2023-06-14T06:23:44;4.05;;;3.75;;
63296;SDS011;49419;51.716;-4.948;2023-06-14T06:26:17;4.22;;;4.03;;
63296;SDS011;49419;51.716;-4.948;2023-06-14T06:28:48;4.15;;;3.85;;
63296;SDS011;49419;51.716;-4.948;2023-06-14T06:31:14;4.75;;;4.35;;
63296;SDS011;49419;51.716;-4.948;2023-06-14T06:40:16;3.72;;;3.53;;
63296;SDS011;49419;51.716;-4.948;2023-06-14T06:48:59;4.13;;;3.90;;
63296;SDS011;49419;51.716;-4.948;2023-06-14T06:57:22;4.30;;;4.00;;
63296;SDS011;49419;51.716;-4.948;2023-06-14T07:03:29;4.10;;;3.80;;
63296;SDS011;49419;51.716;-4.948;2023-06-14T07:05:57;4.00;;;3.80;;
63296;SDS011;49419;51.716;-4.948;2023-06-14T07:08:44;4.15;;;3.85;;
63296;SDS011;49419;51.716;-4.948;2023-06-14T07:11:21;4.05;;;3.85;;
63296;SDS011;49419;51.716;-4.948;2023-06-14T07:13:49;4.10;;;3.88;;
63296;SDS011;49419;51.716;-4.948;2023-06-14T07:16:17;4.20;;;3.90;;
63296;SDS011;49419;51.716;-4.948;2023-06-14T07:19:08;4.05;;;3.75;;
63296;SDS011;49419;51.716;-4.948;2023-06-14T07:21:41;4.07;;;3.80;;
63296;SDS011;49419;51.716;-4.948;2023-06-14T07:24:10;3.67;;;3.47;;
63296;SDS011;49419;51.716;-4.948;2023-06-14T07:29:28;4.00;;;3.70;;
63296;SDS011;49419;51.716;-4.948;2023-06-14T07:34:30;4.18;;;3.88;;
63296;SDS011;49419;51.716;-4.948;2023-06-14T07:36:57;4.10;;;3.80;;
63296;SDS011;49419;51.716;-4.948;2023-06-14T07:39:23;4.15;;;3.85;;
63296;SDS011;49419;51.716;-4.948;2023-06-14T07:41:51;3.90;;;3.70;;
63296;SDS011;49419;51.716;-4.948;2023-06-14T07:44:17;3.45;;;3.25;;
63296;SDS011;49419;51.716;-4.948;2023-06-14T07:46:43;4.03;;;3.63;;
63296;SDS011;49419;51.716;-4.948;2023-06-14T07:54:41;4.10;;;3.80;;
63296;SDS011;49419;51.716;-4.948;2023-06-14T07:57:21;3.85;;;3.60;;
63296;SDS011;49419;51.716;-4.948;2023-06-14T07:59:47;3.80;;;3.60;;
63296;SDS011;49419;51.716;-4.948;2023-06-14T08:10:58;3.58;;;3.38;;
63296;SDS011;49419;51.716;-4.948;2023-06-14T08:19:42;4.32;;;3.60;;
63296;SDS011;49419;51.716;-4.948;2023-06-14T08:22:08;3.80;;;3.60;;
63296;SDS011;49419;51.716;-4.948;2023-06-14T08:24:40;3.50;;;3.30;;
63296;SDS011;49419;51.716;-4.948;2023-06-14T08:29:58;4.20;;;3.90;;
63296;SDS011;49419;51.716;-4.948;2023-06-14T08:32:44;4.00;;;3.70;;
63296;SDS011;49419;51.716;-4.948;2023-06-14T08:38:58;4.40;;;3.97;;
63296;SDS011;49419;51.716;-4.948;2023-06-14T08:41:33;4.28;;;3.97;;
63296;SDS011;49419;51.716;-4.948;2023-06-14T08:47:20;4.35;;;4.05;;
63296;SDS011;49419;51.716;-4.948;2023-06-14T08:53:20;4.10;;;3.80;;
63296;SDS011;49419;51.716;-4.948;2023-06-14T08:56:26;4.28;;;3.97;;
63296;SDS011;49419;51.716;-4.948;2023-06-14T08:59:15;4.40;;;4.00;;
63296;SDS011;49419;51.716;-4.948;2023-06-14T09:04:58;4.22;;;3.92;;
63296;SDS011;49419;51.716;-4.948;2023-06-14T09:07:35;4.30;;;4.00;;
63296;SDS011;49419;51.716;-4.948;2023-06-14T09:10:27;4.40;;;4.07;;
63296;SDS011;49419;51.716;-4.948;2023-06-14T09:13:18;4.97;;;3.83;;
63296;SDS011;49419;51.716;-4.948;2023-06-14T09:15:51;4.00;;;3.70;;
63296;SDS011;49419;51.716;-4.948;2023-06-14T09:18:42;3.65;;;3.42;;
63296;SDS011;49419;51.716;-4.948;2023-06-14T09:21:15;4.28;;;3.95;;
63296;SDS011;49419;51.716;-4.948;2023-06-14T09:24:00;4.17;;;3.87;;
63296;SDS011;49419;51.716;-4.948;2023-06-14T09:26:28;4.15;;;3.85;;
63296;SDS011;49419;51.716;-4.948;2023-06-14T09:29:08;3.78;;;3.58;;
63296;SDS011;49419;51.716;-4.948;2023-06-14T09:31:50;4.00;;;3.70;;
63296;SDS011;49419;51.716;-4.948;2023-06-14T09:34:30;4.38;;;3.97;;
63296;SDS011;49419;51.716;-4.948;2023-06-14T09:37:31;3.88;;;3.60;;
63296;SDS011;49419;51.716;-4.948;2023-06-14T09:40:27;4.10;;;3.80;;
63296;SDS011;49419;51.716;-4.948;2023-06-14T09:46:51;4.00;;;3.70;;
63296;SDS011;49419;51.716;-4.948;2023-06-14T09:49:22;4.00;;;3.63;;
63296;SDS011;49419;51.716;-4.948;2023-06-14T09:52:00;4.35;;;3.92;;
63296;SDS011;49419;51.716;-4.948;2023-06-14T09:54:46;4.00;;;3.80;;
63296;SDS011;49419;51.716;-4.948;2023-06-14T09:57:24;3.50;;;3.30;;
63296;SDS011;49419;51.716;-4.948;2023-06-14T10:00:11;4.35;;;4.03;;
63296;SDS011;49419;51.716;-4.948;2023-06-14T10:02:51;4.00;;;3.70;;
63296;SDS011;49419;51.716;-4.948;2023-06-14T10:05:28;3.65;;;3.40;;
63296;SDS011;49419;51.716;-4.948;2023-06-14T10:08:01;3.67;;;3.47;;
63296;SDS011;49419;51.716;-4.948;2023-06-14T10:13:16;3.83;;;3.58;;
63296;SDS011;49419;51.716;-4.948;2023-06-14T10:16:07;3.67;;;3.45;;
63296;SDS011;49419;51.716;-4.948;2023-06-14T10:18:44;4.10;;;3.70;;
63296;SDS011;49419;51.716;-4.948;2023-06-14T10:21:32;3.60;;;3.40;;
63296;SDS011;49419;51.716;-4.948;2023-06-14T10:27:24;3.65;;;3.45;;
63296;SDS011;49419;51.716;-4.948;2023-06-14T10:30:03;3.90;;;3.60;;
63296;SDS011;49419;51.716;-4.948;2023-06-14T10:33:02;3.97;;;3.67;;
63296;SDS011;49419;51.716;-4.948;2023-06-14T10:35:39;3.47;;;3.28;;
63296;SDS011;49419;51.716;-4.948;2023-06-14T10:38:15;3.40;;;3.20;;
63296;SDS011;49419;51.716;-4.948;2023-06-14T10:41:04;3.35;;;3.15;;
63296;SDS011;49419;51.716;-4.948;2023-06-14T10:43:36;3.50;;;3.30;;
63296;SDS011;49419;51.716;-4.948;2023-06-14T10:46:18;3.60;;;3.40;;
63296;SDS011;49419;51.716;-4.948;2023-06-14T10:48:56;3.08;;;2.88;;
63296;SDS011;49419;51.716;-4.948;2023-06-14T10:56:53;1.90;;;1.80;;
63296;SDS011;49419;51.716;-4.948;2023-06-14T10:59:28;1.80;;;1.70;;
63296;SDS011;49419;51.716;-4.948;2023-06-14T11:05:05;1.80;;;1.70;;
63296;SDS011;49419;51.716;-4.948;2023-06-14T11:13:32;1.92;;;1.83;;
63296;SDS011;49419;51.716;-4.948;2023-06-14T11:16:21;1.67;;;1.58;;
63296;SDS011;49419;51.716;-4.948;2023-06-14T11:19:23;2.03;;;1.83;;
63296;SDS011;49419;51.716;-4.948;2023-06-14T11:22:00;1.92;;;1.70;;
63296;SDS011;49419;51.716;-4.948;2023-06-14T11:24:28;1.80;;;1.70;;
63296;SDS011;49419;51.716;-4.948;2023-06-14T11:27:00;2.47;;;1.60;;
63296;SDS011;49419;51.716;-4.948;2023-06-14T11:29:28;1.50;;;1.40;;
63296;SDS011;49419;51.716;-4.948;2023-06-14T11:31:55;1.63;;;1.50;;
63296;SDS011;49419;51.716;-4.948;2023-06-14T11:34:29;1.95;;;1.58;;
63296;SDS011;49419;51.716;-4.948;2023-06-14T11:37:01;1.63;;;1.50;;
63296;SDS011;49419;51.716;-4.948;2023-06-14T11:39:37;1.70;;;1.60;;
63296;SDS011;49419;51.716;-4.948;2023-06-14T11:42:15;1.60;;;1.50;;
63296;SDS011;49419;51.716;-4.948;2023-06-14T11:44:41;1.60;;;1.48;;
63296;SDS011;49419;51.716;-4.948;2023-06-14T11:47:10;2.20;;;2.10;;
63296;SDS011;49419;51.716;-4.948;2023-06-14T11:49:38;2.60;;;2.40;;
63296;SDS011;49419;51.716;-4.948;2023-06-14T11:52:08;2.40;;;2.20;;
63296;SDS011;49419;51.716;-4.948;2023-06-14T11:54:34;2.50;;;2.40;;
63296;SDS011;49419;51.716;-4.948;2023-06-14T11:57:03;2.40;;;2.30;;
63296;SDS011;49419;51.716;-4.948;2023-06-14T11:59:31;2.70;;;2.50;;
63296;SDS011;49419;51.716;-4.948;2023-06-14T12:02:18;2.70;;;2.50;;
63296;SDS011;49419;51.716;-4.948;2023-06-14T12:04:48;2.40;;;2.20;;
63296;SDS011;49419;51.716;-4.948;2023-06-14T12:07:20;2.08;;;1.98;;
63296;SDS011;49419;51.716;-4.948;2023-06-14T12:12:28;2.35;;;2.20;;
63296;SDS011;49419;51.716;-4.948;2023-06-14T12:15:07;2.28;;;2.17;;
63296;SDS011;49419;51.716;-4.948;2023-06-14T12:17:45;2.90;;;2.70;;
63296;SDS011;49419;51.716;-4.948;2023-06-14T12:20:23;2.70;;;2.50;;
63296;SDS011;49419;51.716;-4.948;2023-06-14T12:25:27;2.42;;;2.33;;
63296;SDS011;49419;51.716;-4.948;2023-06-14T12:28:11;2.60;;;2.40;;
63296;SDS011;49419;51.716;-4.948;2023-06-14T12:30:50;2.50;;;2.30;;
63296;SDS011;49419;51.716;-4.948;2023-06-14T12:33:24;2.67;;;2.47;;
63296;SDS011;49419;51.716;-4.948;2023-06-14T12:35:54;2.83;;;2.63;;
63296;SDS011;49419;51.716;-4.948;2023-06-14T12:38:23;3.10;;;2.90;;
63296;SDS011;49419;51.716;-4.948;2023-06-14T12:40:55;3.15;;;2.95;;
63296;SDS011;49419;51.716;-4.948;2023-06-14T12:43:34;3.20;;;3.00;;
63296;SDS011;49419;51.716;-4.948;2023-06-14T12:46:25;2.45;;;2.33;;
63296;SDS011;49419;51.716;-4.948;2023-06-14T12:48:51;2.60;;;2.40;;
63296;SDS011;49419;51.716;-4.948;2023-06-14T12:54:33;2.60;;;2.40;;
63296;SDS011;49419;51.716;-4.948;2023-06-14T12:57:05;2.55;;;2.35;;
63296;SDS011;49419;51.716;-4.948;2023-06-14T12:59:48;3.25;;;3.05;;
63296;SDS011;49419;51.716;-4.948;2023-06-14T13:02:37;3.28;;;2.97;;
63296;SDS011;49419;51.716;-4.948;2023-06-14T13:05:08;2.72;;;2.53;;
63296;SDS011;49419;51.716;-4.948;2023-06-14T13:07:59;2.97;;;2.78;;
63296;SDS011;49419;51.716;-4.948;2023-06-14T13:13:25;3.40;;;3.20;;
63296;SDS011;49419;51.716;-4.948;2023-06-14T13:15:53;2.80;;;2.60;;
63296;SDS011;49419;51.716;-4.948;2023-06-14T13:18:22;1.95;;;1.85;;
63296;SDS011;49419;51.716;-4.948;2023-06-14T13:20:53;2.40;;;2.20;;
63296;SDS011;49419;51.716;-4.948;2023-06-14T13:26:34;2.83;;;2.63;;
63296;SDS011;49419;51.716;-4.948;2023-06-14T13:29:05;3.00;;;2.80;;
63296;SDS011;49419;51.716;-4.948;2023-06-14T13:31:31;3.03;;;2.83;;
63296;SDS011;49419;51.716;-4.948;2023-06-14T13:34:00;2.85;;;2.65;;
63296;SDS011;49419;51.716;-4.948;2023-06-14T13:36:31;1.88;;;1.77;;
63296;SDS011;49419;51.716;-4.948;2023-06-14T13:39:01;1.90;;;1.80;;
63296;SDS011;49419;51.716;-4.948;2023-06-14T13:41:42;2.97;;;2.78;;
63296;SDS011;49419;51.716;-4.948;2023-06-14T13:44:28;1.60;;;1.50;;
63296;SDS011;49419;51.716;-4.948;2023-06-14T13:47:06;3.13;;;2.92;;
63296;SDS011;49419;51.716;-4.948;2023-06-14T13:49:42;2.53;;;2.38;;
63296;SDS011;49419;51.716;-4.948;2023-06-14T13:52:20;2.17;;;1.48;;
63296;SDS011;49419;51.716;-4.948;2023-06-14T13:57:24;1.55;;;1.42;;
63296;SDS011;49419;51.716;-4.948;2023-06-14T13:59:51;2.45;;;2.25;;
63296;SDS011;49419;51.716;-4.948;2023-06-14T14:02:26;1.70;;;1.60;;
63296;SDS011;49419;51.716;-4.948;2023-06-14T14:05:06;1.70;;;1.60;;
63296;SDS011;49419;51.716;-4.948;2023-06-14T14:07:53;1.25;;;1.15;;
63296;SDS011;49419;51.716;-4.948;2023-06-14T14:10:24;2.45;;;1.60;;
63296;SDS011;49419;51.716;-4.948;2023-06-14T14:13:16;3.17;;;2.97;;
63296;SDS011;49419;51.716;-4.948;2023-06-14T14:15:46;3.08;;;2.88;;
63296;SDS011;49419;51.716;-4.948;2023-06-14T14:18:12;2.08;;;1.70;;
63296;SDS011;49419;51.716;-4.948;2023-06-14T14:20:37;2.30;;;1.10;;
63296;SDS011;49419;51.716;-4.948;2023-06-14T14:23:05;2.03;;;1.10;;
63296;SDS011;49419;51.716;-4.948;2023-06-14T14:25:31;2.50;;;1.50;;
63296;SDS011;49419;51.716;-4.948;2023-06-14T14:28:03;1.65;;;1.10;;
63296;SDS011;49419;51.716;-4.948;2023-06-14T14:30:28;1.80;;;1.30;;
63296;SDS011;49419;51.716;-4.948;2023-06-14T14:33:00;1.60;;;1.50;;
63296;SDS011;49419;51.716;-4.948;2023-06-14T14:35:25;1.30;;;1.17;;
63296;SDS011;49419;51.716;-4.948;2023-06-14T14:37:55;1.40;;;1.30;;
63296;SDS011;49419;51.716;-4.948;2023-06-14T14:40:26;1.50;;;1.08;;
63296;SDS011;49419;51.716;-4.948;2023-06-14T14:42:51;1.17;;;0.88;;
63296;SDS011;49419;51.716;-4.948;2023-06-14T14:45:22;1.63;;;1.20;;
63296;SDS011;49419;51.716;-4.948;2023-06-14T14:48:00;1.00;;;0.90;;
63296;SDS011;49419;51.716;-4.948;2023-06-14T14:50:27;2.17;;;1.10;;
63296;SDS011;49419;51.716;-4.948;2023-06-14T14:52:54;1.58;;;1.00;;
63296;SDS011;49419;51.716;-4.948;2023-06-14T14:55:21;1.08;;;0.98;;
63296;SDS011;49419;51.716;-4.948;2023-06-14T14:57:57;1.63;;;0.90;;
63296;SDS011;49419;51.716;-4.948;2023-06-14T15:00:31;1.20;;;1.10;;
63296;SDS011;49419;51.716;-4.948;2023-06-14T15:03:05;1.20;;;1.10;;
63296;SDS011;49419;51.716;-4.948;2023-06-14T15:05:43;1.55;;;1.20;;
63296;SDS011;49419;51.716;-4.948;2023-06-14T15:08:11;1.80;;;1.17;;
63296;SDS011;49419;51.716;-4.948;2023-06-14T15:10:56;1.45;;;1.15;;
63296;SDS011;49419;51.716;-4.948;2023-06-14T15:16:08;1.30;;;1.00;;
63296;SDS011;49419;51.716;-4.948;2023-06-14T15:18:36;1.60;;;0.98;;
63296;SDS011;49419;51.716;-4.948;2023-06-14T15:21:02;1.00;;;0.90;;
63296;SDS011;49419;51.716;-4.948;2023-06-14T15:23:47;1.08;;;0.95;;
63296;SDS011;49419;51.716;-4.948;2023-06-14T15:26:18;1.05;;;0.95;;
63296;SDS011;49419;51.716;-4.948;2023-06-14T15:28:49;1.20;;;0.90;;
63296;SDS011;49419;51.716;-4.948;2023-06-14T15:31:24;2.08;;;1.20;;
63296;SDS011;49419;51.716;-4.948;2023-06-14T15:34:00;1.55;;;1.35;;
63296;SDS011;49419;51.716;-4.948;2023-06-14T15:36:25;5.75;;;5.25;;
63296;SDS011;49419;51.716;-4.948;2023-06-14T15:38:59;9.23;;;8.27;;
63296;SDS011;49419;51.716;-4.948;2023-06-14T15:41:24;9.00;;;8.20;;
63296;SDS011;49419;51.716;-4.948;2023-06-14T15:43:54;8.70;;;7.80;;
63296;SDS011;49419;51.716;-4.948;2023-06-14T15:46:42;8.95;;;8.07;;
63296;SDS011;49419;51.716;-4.948;2023-06-14T15:49:13;7.63;;;6.93;;
63296;SDS011;49419;51.716;-4.948;2023-06-14T15:51:45;6.45;;;5.85;;
63296;SDS011;49419;51.716;-4.948;2023-06-14T15:54:28;5.65;;;5.15;;
63296;SDS011;49419;51.716;-4.948;2023-06-14T15:56:54;5.10;;;4.63;;
63296;SDS011;49419;51.716;-4.948;2023-06-14T15:59:19;4.53;;;4.13;;
63296;SDS011;49419;51.716;-4.948;2023-06-14T16:01:45;4.32;;;3.85;;
63296;SDS011;49419;51.716;-4.948;2023-06-14T16:04:15;4.05;;;3.65;;
63296;SDS011;49419;51.716;-4.948;2023-06-14T16:06:41;3.50;;;3.20;;
63296;SDS011;49419;51.716;-4.948;2023-06-14T16:09:17;3.38;;;3.08;;
63296;SDS011;49419;51.716;-4.948;2023-06-14T16:11:44;3.08;;;2.53;;
63296;SDS011;49419;51.716;-4.948;2023-06-14T16:14:09;3.60;;;2.97;;
63296;SDS011;49419;51.716;-4.948;2023-06-14T16:17:02;2.80;;;2.30;;
63296;SDS011;49419;51.716;-4.948;2023-06-14T16:19:32;3.33;;;2.22;;
63296;SDS011;49419;51.716;-4.948;2023-06-14T16:22:00;2.20;;;2.00;;
63296;SDS011;49419;51.716;-4.948;2023-06-14T16:24:32;2.20;;;2.00;;
63296;SDS011;49419;51.716;-4.948;2023-06-14T16:27:10;2.00;;;1.80;;
63296;SDS011;49419;51.716;-4.948;2023-06-14T16:29:48;1.85;;;1.70;;
63296;SDS011;49419;51.716;-4.948;2023-06-14T16:32:14;1.83;;;1.73;;
63296;SDS011;49419;51.716;-4.948;2023-06-14T16:34:42;1.67;;;1.55;;
63296;SDS011;49419;51.716;-4.948;2023-06-14T16:37:09;2.13;;;1.70;;
63296;SDS011;49419;51.716;-4.948;2023-06-14T16:39:37;1.73;;;1.55;;
63296;SDS011;49419;51.716;-4.948;2023-06-14T16:42:18;2.22;;;1.60;;
63296;SDS011;49419;51.716;-4.948;2023-06-14T16:44:47;3.67;;;3.40;;
63296;SDS011;49419;51.716;-4.948;2023-06-14T16:47:16;2.22;;;1.70;;
63296;SDS011;49419;51.716;-4.948;2023-06-14T16:49:42;2.88;;;2.60;;
63296;SDS011;49419;51.716;-4.948;2023-06-14T16:52:10;3.50;;;3.20;;
63296;SDS011;49419;51.716;-4.948;2023-06-14T16:54:43;3.05;;;1.83;;
63296;SDS011;49419;51.716;-4.948;2023-06-14T16:57:26;1.67;;;1.58;;
63296;SDS011;49419;51.716;-4.948;2023-06-14T17:00:02;3.70;;;3.50;;
63296;SDS011;49419;51.716;-4.948;2023-06-14T17:02:28;3.83;;;3.63;;
63296;SDS011;49419;51.716;-4.948;2023-06-14T17:04:55;3.60;;;3.40;;
63296;SDS011;49419;51.716;-4.948;2023-06-14T17:07:36;3.90;;;3.60;;
63296;SDS011;49419;51.716;-4.948;2023-06-14T17:10:08;4.28;;;3.97;;
63296;SDS011;49419;51.716;-4.948;2023-06-14T17:12:33;4.20;;;3.90;;
63296;SDS011;49419;51.716;-4.948;2023-06-14T17:15:01;4.38;;;3.90;;
63296;SDS011;49419;51.716;-4.948;2023-06-14T17:17:41;4.07;;;3.78;;
63296;SDS011;49419;51.716;-4.948;2023-06-14T17:20:08;3.63;;;3.42;;
63296;SDS011;49419;51.716;-4.948;2023-06-14T17:22:44;3.72;;;3.53;;
63296;SDS011;49419;51.716;-4.948;2023-06-14T17:25:11;3.55;;;3.35;;
63296;SDS011;49419;51.716;-4.948;2023-06-14T17:27:39;3.80;;;3.60;;
63296;SDS011;49419;51.716;-4.948;2023-06-14T17:30:04;3.90;;;3.60;;
63296;SDS011;49419;51.716;-4.948;2023-06-14T17:32:31;3.75;;;3.55;;
63296;SDS011;49419;51.716;-4.948;2023-06-14T17:35:01;3.50;;;3.30;;
63296;SDS011;49419;51.716;-4.948;2023-06-14T17:37:28;3.50;;;3.30;;
63296;SDS011;49419;51.716;-4.948;2023-06-14T17:39:54;1.70;;;1.60;;
63296;SDS011;49419;51.716;-4.948;2023-06-14T17:42:24;1.67;;;1.15;;
63296;SDS011;49419;51.716;-4.948;2023-06-14T17:47:20;1.20;;;1.10;;
63296;SDS011;49419;51.716;-4.948;2023-06-14T17:49:46;3.70;;;3.50;;
63296;SDS011;49419;51.716;-4.948;2023-06-14T17:52:17;3.42;;;3.22;;
63296;SDS011;49419;51.716;-4.948;2023-06-14T17:54:51;3.40;;;3.20;;
63296;SDS011;49419;51.716;-4.948;2023-06-14T17:57:21;3.50;;;3.30;;
63296;SDS011;49419;51.716;-4.948;2023-06-14T17:59:55;3.58;;;3.38;;
63296;SDS011;49419;51.716;-4.948;2023-06-14T18:02:21;3.55;;;3.35;;
63296;SDS011;49419;51.716;-4.948;2023-06-14T18:04:57;3.70;;;3.40;;
63296;SDS011;49419;51.716;-4.948;2023-06-14T18:07:24;3.42;;;3.22;;
63296;SDS011;49419;51.716;-4.948;2023-06-14T18:09:59;3.50;;;3.30;;
63296;SDS011;49419;51.716;-4.948;2023-06-14T18:12:25;3.35;;;3.15;;
63296;SDS011;49419;51.716;-4.948;2023-06-14T18:14:53;3.50;;;3.30;;
63296;SDS011;49419;51.716;-4.948;2023-06-14T18:17:19;3.70;;;3.50;;
63296;SDS011;49419;51.716;-4.948;2023-06-14T18:19:44;4.00;;;3.80;;
63296;SDS011;49419;51.716;-4.948;2023-06-14T18:22:22;3.80;;;3.60;;
63296;SDS011;49419;51.716;-4.948;2023-06-14T18:24:47;3.90;;;3.60;;
63296;SDS011;49419;51.716;-4.948;2023-06-14T18:29:48;3.85;;;3.65;;
63296;SDS011;49419;51.716;-4.948;2023-06-14T18:32:20;4.00;;;3.80;;
63296;SDS011;49419;51.716;-4.948;2023-06-14T18:35:08;4.40;;;4.10;;
63296;SDS011;49419;51.716;-4.948;2023-06-14T18:37:34;4.28;;;3.97;;
63296;SDS011;49419;51.716;-4.948;2023-06-14T18:40:03;4.05;;;3.85;;
63296;SDS011;49419;51.716;-4.948;2023-06-14T18:42:34;4.10;;;3.80;;
63296;SDS011;49419;51.716;-4.948;2023-06-14T18:44:59;3.85;;;3.65;;
63296;SDS011;49419;51.716;-4.948;2023-06-14T18:47:32;4.35;;;4.05;;
63296;SDS011;49419;51.716;-4.948;2023-06-14T18:50:06;4.00;;;3.80;;
63296;SDS011;49419;51.716;-4.948;2023-06-14T18:52:34;4.10;;;3.90;;
63296;SDS011;49419;51.716;-4.948;2023-06-14T18:55:00;4.15;;;3.90;;
63296;SDS011;49419;51.716;-4.948;2023-06-14T18:57:26;4.18;;;3.97;;
63296;SDS011;49419;51.716;-4.948;2023-06-14T18:59:54;3.95;;;3.75;;
63296;SDS011;49419;51.716;-4.948;2023-06-14T19:02:23;3.88;;;3.67;;
63296;SDS011;49419;51.716;-4.948;2023-06-14T19:04:49;3.70;;;3.50;;
63296;SDS011;49419;51.716;-4.948;2023-06-14T19:07:16;4.00;;;3.80;;
63296;SDS011;49419;51.716;-4.948;2023-06-14T19:09:41;3.70;;;3.50;;
63296;SDS011;49419;51.716;-4.948;2023-06-14T19:14:37;3.78;;;3.58;;
63296;SDS011;49419;51.716;-4.948;2023-06-14T19:17:02;3.80;;;3.60;;
63296;SDS011;49419;51.716;-4.948;2023-06-14T19:19:29;3.90;;;3.70;;
63296;SDS011;49419;51.716;-4.948;2023-06-14T19:21:55;4.00;;;3.80;;
63296;SDS011;49419;51.716;-4.948;2023-06-14T19:24:25;3.65;;;3.45;;
63296;SDS011;49419;51.716;-4.948;2023-06-14T19:26:53;4.00;;;3.80;;
63296;SDS011;49419;51.716;-4.948;2023-06-14T19:29:19;3.58;;;3.38;;